sensor_id;sensor_type;location;lat;lon;timestamp;P1;durP1;ratioP1;P2;durP2;ratioP2
7659;SDS011;3872;47.902;8.162;2023-05-02T00:01:45;5.70;;;3.73;;
7659;SDS011;3872;47.902;8.162;2023-05-02T00:04:11;5.87;;;4.10;;
7659;SDS011;3872;47.902;8.162;2023-05-02T00:06:38;9.37;;;3.80;;
7659;SDS011;3872;47.902;8.162;2023-05-02T00:09:06;6.70;;;4.03;;
7659;SDS011;3872;47.902;8.162;2023-05-02T00:11:33;6.80;;;4.00;;
7659;SDS011;3872;47.902;8.162;2023-05-02T00:14:01;7.30;;;4.17;;
7659;SDS011;3872;47.902;8.162;2023-05-02T00:16:27;7.70;;;4.20;;
7659;SDS011;3872;47.902;8.162;2023-05-02T00:18:54;6.07;;;4.10;;
7659;SDS011;3872;47.902;8.162;2023-05-02T00:21:20;5.83;;;4.20;;
7659;SDS011;3872;47.902;8.162;2023-05-02T00:23:47;7.00;;;4.30;;
7659;SDS011;3872;47.902;8.162;2023-05-02T00:26:13;6.53;;;3.53;;
7659;SDS011;3872;47.902;8.162;2023-05-02T00:28:41;5.10;;;3.40;;
7659;SDS011;3872;47.902;8.162;2023-05-02T00:31:09;10.13;;;4.37;;
7659;SDS011;3872;47.902;8.162;2023-05-02T00:33:35;5.80;;;3.53;;
7659;SDS011;3872;47.902;8.162;2023-05-02T00:36:02;6.10;;;3.50;;
7659;SDS011;3872;47.902;8.162;2023-05-02T00:38:28;6.40;;;3.70;;
7659;SDS011;3872;47.902;8.162;2023-05-02T00:40:55;6.60;;;4.40;;
7659;SDS011;3872;47.902;8.162;2023-05-02T00:43:22;6.30;;;3.60;;
7659;SDS011;3872;47.902;8.162;2023-05-02T00:45:48;5.90;;;3.57;;
7659;SDS011;3872;47.902;8.162;2023-05-02T00:48:17;9.80;;;4.03;;
7659;SDS011;3872;47.902;8.162;2023-05-02T00:50:45;5.50;;;3.70;;
7659;SDS011;3872;47.902;8.162;2023-05-02T00:53:12;6.70;;;3.90;;
7659;SDS011;3872;47.902;8.162;2023-05-02T00:55:38;9.00;;;4.90;;
7659;SDS011;3872;47.902;8.162;2023-05-02T00:58:07;8.73;;;5.17;;
7659;SDS011;3872;47.902;8.162;2023-05-02T01:00:39;8.40;;;4.97;;
7659;SDS011;3872;47.902;8.162;2023-05-02T01:03:22;8.53;;;5.40;;
7659;SDS011;3872;47.902;8.162;2023-05-02T01:05:58;11.83;;;4.93;;
7659;SDS011;3872;47.902;8.162;2023-05-02T01:08:33;7.30;;;4.53;;
7659;SDS011;3872;47.902;8.162;2023-05-02T01:11:07;8.23;;;5.20;;
7659;SDS011;3872;47.902;8.162;2023-05-02T01:13:41;9.90;;;5.50;;
7659;SDS011;3872;47.902;8.162;2023-05-02T01:16:10;11.53;;;5.77;;
7659;SDS011;3872;47.902;8.162;2023-05-02T01:18:41;12.20;;;7.57;;
7659;SDS011;3872;47.902;8.162;2023-05-02T01:21:09;10.33;;;6.53;;
7659;SDS011;3872;47.902;8.162;2023-05-02T01:23:40;10.53;;;5.50;;
7659;SDS011;3872;47.902;8.162;2023-05-02T01:26:23;10.23;;;6.60;;
7659;SDS011;3872;47.902;8.162;2023-05-02T01:28:57;12.50;;;6.53;;
7659;SDS011;3872;47.902;8.162;2023-05-02T01:31:30;8.40;;;5.40;;
7659;SDS011;3872;47.902;8.162;2023-05-02T01:33:59;11.03;;;6.00;;
7659;SDS011;3872;47.902;8.162;2023-05-02T01:36:29;10.87;;;6.20;;
7659;SDS011;3872;47.902;8.162;2023-05-02T01:38:58;11.53;;;6.50;;
7659;SDS011;3872;47.902;8.162;2023-05-02T01:41:28;13.20;;;5.90;;
7659;SDS011;3872;47.902;8.162;2023-05-02T01:43:58;13.93;;;5.60;;
7659;SDS011;3872;47.902;8.162;2023-05-02T01:46:29;11.47;;;6.57;;
7659;SDS011;3872;47.902;8.162;2023-05-02T01:48:59;10.17;;;5.87;;
7659;SDS011;3872;47.902;8.162;2023-05-02T01:51:29;9.73;;;5.53;;
7659;SDS011;3872;47.902;8.162;2023-05-02T01:53:57;10.57;;;6.50;;
7659;SDS011;3872;47.902;8.162;2023-05-02T01:56:26;10.17;;;6.00;;
7659;SDS011;3872;47.902;8.162;2023-05-02T01:58:59;14.80;;;6.13;;
7659;SDS011;3872;47.902;8.162;2023-05-02T02:01:27;12.40;;;6.33;;
7659;SDS011;3872;47.902;8.162;2023-05-02T02:03:55;10.80;;;6.20;;
7659;SDS011;3872;47.902;8.162;2023-05-02T02:06:23;9.30;;;5.97;;
7659;SDS011;3872;47.902;8.162;2023-05-02T02:08:51;14.47;;;6.30;;
7659;SDS011;3872;47.902;8.162;2023-05-02T02:11:20;13.93;;;6.03;;
7659;SDS011;3872;47.902;8.162;2023-05-02T02:13:52;13.30;;;6.57;;
7659;SDS011;3872;47.902;8.162;2023-05-02T02:16:31;11.60;;;6.60;;
7659;SDS011;3872;47.902;8.162;2023-05-02T02:19:01;12.57;;;6.47;;
7659;SDS011;3872;47.902;8.162;2023-05-02T02:21:31;9.90;;;6.53;;
7659;SDS011;3872;47.902;8.162;2023-05-02T02:24:00;8.43;;;5.40;;
7659;SDS011;3872;47.902;8.162;2023-05-02T02:26:28;11.73;;;6.40;;
7659;SDS011;3872;47.902;8.162;2023-05-02T02:28:55;10.97;;;6.70;;
7659;SDS011;3872;47.902;8.162;2023-05-02T02:31:22;13.00;;;7.00;;
7659;SDS011;3872;47.902;8.162;2023-05-02T02:33:51;11.40;;;6.20;;
7659;SDS011;3872;47.902;8.162;2023-05-02T02:36:18;9.03;;;6.47;;
7659;SDS011;3872;47.902;8.162;2023-05-02T02:38:53;10.90;;;6.40;;
7659;SDS011;3872;47.902;8.162;2023-05-02T02:41:26;9.40;;;6.20;;
7659;SDS011;3872;47.902;8.162;2023-05-02T02:43:59;10.63;;;7.10;;
7659;SDS011;3872;47.902;8.162;2023-05-02T02:46:33;9.27;;;6.00;;
7659;SDS011;3872;47.902;8.162;2023-05-02T02:49:14;12.53;;;7.57;;
7659;SDS011;3872;47.902;8.162;2023-05-02T02:51:52;11.40;;;6.90;;
7659;SDS011;3872;47.902;8.162;2023-05-02T02:54:27;12.87;;;7.13;;
7659;SDS011;3872;47.902;8.162;2023-05-02T02:56:58;13.30;;;7.67;;
7659;SDS011;3872;47.902;8.162;2023-05-02T02:59:30;15.50;;;8.40;;
7659;SDS011;3872;47.902;8.162;2023-05-02T03:02:00;16.20;;;6.60;;
7659;SDS011;3872;47.902;8.162;2023-05-02T03:04:33;9.50;;;6.30;;
7659;SDS011;3872;47.902;8.162;2023-05-02T03:07:02;13.10;;;7.00;;
7659;SDS011;3872;47.902;8.162;2023-05-02T03:09:38;12.47;;;7.67;;
7659;SDS011;3872;47.902;8.162;2023-05-02T03:12:07;14.27;;;7.40;;
7659;SDS011;3872;47.902;8.162;2023-05-02T03:14:36;11.83;;;7.70;;
7659;SDS011;3872;47.902;8.162;2023-05-02T03:17:03;12.80;;;7.23;;
7659;SDS011;3872;47.902;8.162;2023-05-02T03:19:34;13.20;;;7.40;;
7659;SDS011;3872;47.902;8.162;2023-05-02T03:22:01;13.40;;;7.37;;
7659;SDS011;3872;47.902;8.162;2023-05-02T03:24:28;15.13;;;8.80;;
7659;SDS011;3872;47.902;8.162;2023-05-02T03:26:56;16.57;;;8.53;;
7659;SDS011;3872;47.902;8.162;2023-05-02T03:29:26;14.23;;;8.33;;
7659;SDS011;3872;47.902;8.162;2023-05-02T03:31:53;11.77;;;7.60;;
7659;SDS011;3872;47.902;8.162;2023-05-02T03:34:21;15.10;;;8.83;;
7659;SDS011;3872;47.902;8.162;2023-05-02T03:36:52;13.00;;;7.10;;
7659;SDS011;3872;47.902;8.162;2023-05-02T03:39:19;13.53;;;7.13;;
7659;SDS011;3872;47.902;8.162;2023-05-02T03:41:46;15.90;;;8.70;;
7659;SDS011;3872;47.902;8.162;2023-05-02T03:44:17;14.77;;;7.73;;
7659;SDS011;3872;47.902;8.162;2023-05-02T03:46:43;13.43;;;7.47;;
7659;SDS011;3872;47.902;8.162;2023-05-02T03:49:11;14.90;;;9.30;;
7659;SDS011;3872;47.902;8.162;2023-05-02T03:51:40;14.20;;;9.03;;
7659;SDS011;3872;47.902;8.162;2023-05-02T03:54:09;13.30;;;8.10;;
7659;SDS011;3872;47.902;8.162;2023-05-02T03:56:39;18.63;;;10.07;;
7659;SDS011;3872;47.902;8.162;2023-05-02T03:59:16;15.50;;;9.63;;
7659;SDS011;3872;47.902;8.162;2023-05-02T04:01:43;16.83;;;10.37;;
7659;SDS011;3872;47.902;8.162;2023-05-02T04:04:12;14.47;;;8.80;;
7659;SDS011;3872;47.902;8.162;2023-05-02T04:06:45;13.93;;;8.60;;
7659;SDS011;3872;47.902;8.162;2023-05-02T04:09:13;14.77;;;8.50;;
7659;SDS011;3872;47.902;8.162;2023-05-02T04:11:53;17.73;;;8.40;;
7659;SDS011;3872;47.902;8.162;2023-05-02T04:14:21;19.90;;;9.87;;
7659;SDS011;3872;47.902;8.162;2023-05-02T04:16:50;16.43;;;9.23;;
7659;SDS011;3872;47.902;8.162;2023-05-02T04:19:24;20.83;;;10.30;;
7659;SDS011;3872;47.902;8.162;2023-05-02T04:21:51;17.30;;;10.00;;
7659;SDS011;3872;47.902;8.162;2023-05-02T04:24:19;16.60;;;10.03;;
7659;SDS011;3872;47.902;8.162;2023-05-02T04:26:46;19.93;;;10.67;;
7659;SDS011;3872;47.902;8.162;2023-05-02T04:29:13;18.80;;;10.90;;
7659;SDS011;3872;47.902;8.162;2023-05-02T04:31:40;17.47;;;10.00;;
7659;SDS011;3872;47.902;8.162;2023-05-02T04:34:08;18.20;;;10.87;;
7659;SDS011;3872;47.902;8.162;2023-05-02T04:36:40;14.77;;;8.97;;
7659;SDS011;3872;47.902;8.162;2023-05-02T04:39:10;17.83;;;10.43;;
7659;SDS011;3872;47.902;8.162;2023-05-02T04:41:42;17.30;;;10.30;;
7659;SDS011;3872;47.902;8.162;2023-05-02T04:44:11;15.67;;;10.63;;
7659;SDS011;3872;47.902;8.162;2023-05-02T04:46:37;16.10;;;10.10;;
7659;SDS011;3872;47.902;8.162;2023-05-02T04:49:04;15.43;;;9.80;;
7659;SDS011;3872;47.902;8.162;2023-05-02T04:51:30;16.10;;;9.70;;
7659;SDS011;3872;47.902;8.162;2023-05-02T04:53:58;16.60;;;9.30;;
7659;SDS011;3872;47.902;8.162;2023-05-02T04:56:25;22.40;;;10.30;;
7659;SDS011;3872;47.902;8.162;2023-05-02T04:58:54;13.83;;;9.47;;
7659;SDS011;3872;47.902;8.162;2023-05-02T05:01:21;16.40;;;9.77;;
7659;SDS011;3872;47.902;8.162;2023-05-02T05:03:48;17.50;;;10.00;;
7659;SDS011;3872;47.902;8.162;2023-05-02T05:06:16;18.17;;;10.00;;
7659;SDS011;3872;47.902;8.162;2023-05-02T05:08:43;20.60;;;10.00;;
7659;SDS011;3872;47.902;8.162;2023-05-02T05:11:11;15.70;;;10.00;;
7659;SDS011;3872;47.902;8.162;2023-05-02T05:13:39;15.33;;;9.87;;
7659;SDS011;3872;47.902;8.162;2023-05-02T05:16:08;20.57;;;11.10;;
7659;SDS011;3872;47.902;8.162;2023-05-02T05:18:36;21.10;;;11.33;;
7659;SDS011;3872;47.902;8.162;2023-05-02T05:21:07;19.70;;;11.43;;
7659;SDS011;3872;47.902;8.162;2023-05-02T05:23:34;22.50;;;11.10;;
7659;SDS011;3872;47.902;8.162;2023-05-02T05:26:07;16.93;;;10.20;;
7659;SDS011;3872;47.902;8.162;2023-05-02T05:28:34;15.60;;;10.10;;
7659;SDS011;3872;47.902;8.162;2023-05-02T05:31:03;16.73;;;10.40;;
7659;SDS011;3872;47.902;8.162;2023-05-02T05:33:32;16.27;;;10.47;;
7659;SDS011;3872;47.902;8.162;2023-05-02T05:36:02;25.90;;;12.00;;
7659;SDS011;3872;47.902;8.162;2023-05-02T05:38:30;20.23;;;11.77;;
7659;SDS011;3872;47.902;8.162;2023-05-02T05:40:56;17.73;;;10.90;;
7659;SDS011;3872;47.902;8.162;2023-05-02T05:43:24;19.33;;;12.03;;
7659;SDS011;3872;47.902;8.162;2023-05-02T05:45:51;17.20;;;11.37;;
7659;SDS011;3872;47.902;8.162;2023-05-02T05:48:18;14.20;;;9.93;;
7659;SDS011;3872;47.902;8.162;2023-05-02T05:50:46;16.90;;;10.07;;
7659;SDS011;3872;47.902;8.162;2023-05-02T05:53:13;17.00;;;10.00;;
7659;SDS011;3872;47.902;8.162;2023-05-02T05:55:41;17.10;;;10.10;;
7659;SDS011;3872;47.902;8.162;2023-05-02T05:58:08;16.77;;;10.20;;
7659;SDS011;3872;47.902;8.162;2023-05-02T06:00:36;16.27;;;9.77;;
7659;SDS011;3872;47.902;8.162;2023-05-02T06:03:03;17.57;;;10.97;;
7659;SDS011;3872;47.902;8.162;2023-05-02T06:05:31;16.77;;;9.63;;
7659;SDS011;3872;47.902;8.162;2023-05-02T06:07:59;16.47;;;10.00;;
7659;SDS011;3872;47.902;8.162;2023-05-02T06:10:26;16.77;;;9.60;;
7659;SDS011;3872;47.902;8.162;2023-05-02T06:12:53;18.00;;;10.23;;
7659;SDS011;3872;47.902;8.162;2023-05-02T06:15:23;14.63;;;9.33;;
7659;SDS011;3872;47.902;8.162;2023-05-02T06:17:51;16.03;;;9.70;;
7659;SDS011;3872;47.902;8.162;2023-05-02T06:20:17;16.50;;;10.10;;
7659;SDS011;3872;47.902;8.162;2023-05-02T06:22:44;23.23;;;10.30;;
7659;SDS011;3872;47.902;8.162;2023-05-02T06:25:13;12.93;;;8.47;;
7659;SDS011;3872;47.902;8.162;2023-05-02T06:27:39;13.47;;;8.03;;
7659;SDS011;3872;47.902;8.162;2023-05-02T06:30:06;17.10;;;9.80;;
7659;SDS011;3872;47.902;8.162;2023-05-02T06:32:33;17.43;;;9.87;;
7659;SDS011;3872;47.902;8.162;2023-05-02T06:35:00;15.20;;;9.30;;
7659;SDS011;3872;47.902;8.162;2023-05-02T06:37:26;17.97;;;9.67;;
7659;SDS011;3872;47.902;8.162;2023-05-02T06:39:53;17.87;;;9.70;;
7659;SDS011;3872;47.902;8.162;2023-05-02T06:42:21;13.93;;;8.87;;
7659;SDS011;3872;47.902;8.162;2023-05-02T06:44:47;14.67;;;8.77;;
7659;SDS011;3872;47.902;8.162;2023-05-02T06:47:14;18.30;;;9.00;;
7659;SDS011;3872;47.902;8.162;2023-05-02T06:49:40;18.73;;;9.70;;
7659;SDS011;3872;47.902;8.162;2023-05-02T06:52:07;21.70;;;9.70;;
7659;SDS011;3872;47.902;8.162;2023-05-02T06:54:33;14.60;;;9.23;;
7659;SDS011;3872;47.902;8.162;2023-05-02T06:57:00;15.20;;;8.60;;
7659;SDS011;3872;47.902;8.162;2023-05-02T06:59:28;13.37;;;8.70;;
7659;SDS011;3872;47.902;8.162;2023-05-02T07:01:55;17.73;;;8.50;;
7659;SDS011;3872;47.902;8.162;2023-05-02T07:04:21;15.50;;;9.67;;
7659;SDS011;3872;47.902;8.162;2023-05-02T07:06:47;15.00;;;9.20;;
7659;SDS011;3872;47.902;8.162;2023-05-02T07:09:14;25.53;;;10.73;;
7659;SDS011;3872;47.902;8.162;2023-05-02T07:11:41;16.40;;;9.23;;
7659;SDS011;3872;47.902;8.162;2023-05-02T07:14:07;15.90;;;9.93;;
7659;SDS011;3872;47.902;8.162;2023-05-02T07:16:35;15.53;;;9.73;;
7659;SDS011;3872;47.902;8.162;2023-05-02T07:19:01;14.50;;;8.47;;
7659;SDS011;3872;47.902;8.162;2023-05-02T07:21:30;13.30;;;8.47;;
7659;SDS011;3872;47.902;8.162;2023-05-02T07:23:57;14.73;;;8.60;;
7659;SDS011;3872;47.902;8.162;2023-05-02T07:26:24;16.30;;;7.97;;
7659;SDS011;3872;47.902;8.162;2023-05-02T07:28:51;12.23;;;7.70;;
7659;SDS011;3872;47.902;8.162;2023-05-02T07:31:18;15.33;;;7.80;;
7659;SDS011;3872;47.902;8.162;2023-05-02T07:33:46;15.80;;;8.10;;
7659;SDS011;3872;47.902;8.162;2023-05-02T07:36:12;13.10;;;7.30;;
7659;SDS011;3872;47.902;8.162;2023-05-02T07:38:39;11.27;;;7.17;;
7659;SDS011;3872;47.902;8.162;2023-05-02T07:41:05;12.37;;;7.10;;
7659;SDS011;3872;47.902;8.162;2023-05-02T07:43:32;13.30;;;8.00;;
7659;SDS011;3872;47.902;8.162;2023-05-02T07:46:02;12.00;;;7.37;;
7659;SDS011;3872;47.902;8.162;2023-05-02T07:48:29;15.63;;;7.60;;
7659;SDS011;3872;47.902;8.162;2023-05-02T07:51:05;12.57;;;8.10;;
7659;SDS011;3872;47.902;8.162;2023-05-02T07:53:32;11.63;;;7.73;;
7659;SDS011;3872;47.902;8.162;2023-05-02T07:55:59;15.43;;;7.37;;
7659;SDS011;3872;47.902;8.162;2023-05-02T07:58:25;11.07;;;6.90;;
7659;SDS011;3872;47.902;8.162;2023-05-02T08:00:52;14.10;;;7.37;;
7659;SDS011;3872;47.902;8.162;2023-05-02T08:03:18;10.00;;;6.60;;
7659;SDS011;3872;47.902;8.162;2023-05-02T08:05:45;10.10;;;6.40;;
7659;SDS011;3872;47.902;8.162;2023-05-02T08:08:13;9.63;;;6.23;;
7659;SDS011;3872;47.902;8.162;2023-05-02T08:10:40;10.60;;;6.40;;
7659;SDS011;3872;47.902;8.162;2023-05-02T08:13:06;9.67;;;6.63;;
7659;SDS011;3872;47.902;8.162;2023-05-02T08:15:32;9.63;;;5.70;;
7659;SDS011;3872;47.902;8.162;2023-05-02T08:18:00;9.17;;;5.93;;
7659;SDS011;3872;47.902;8.162;2023-05-02T08:20:26;15.63;;;5.70;;
7659;SDS011;3872;47.902;8.162;2023-05-02T08:22:53;9.83;;;6.07;;
7659;SDS011;3872;47.902;8.162;2023-05-02T08:25:21;9.93;;;5.23;;
7659;SDS011;3872;47.902;8.162;2023-05-02T08:27:47;9.70;;;5.00;;
7659;SDS011;3872;47.902;8.162;2023-05-02T08:30:14;8.17;;;5.10;;
7659;SDS011;3872;47.902;8.162;2023-05-02T08:32:40;7.30;;;4.90;;
7659;SDS011;3872;47.902;8.162;2023-05-02T08:35:07;13.53;;;5.47;;
7659;SDS011;3872;47.902;8.162;2023-05-02T08:37:34;8.47;;;6.00;;
7659;SDS011;3872;47.902;8.162;2023-05-02T08:40:01;8.60;;;5.57;;
7659;SDS011;3872;47.902;8.162;2023-05-02T08:42:29;16.03;;;4.97;;
7659;SDS011;3872;47.902;8.162;2023-05-02T08:44:58;8.43;;;5.27;;
7659;SDS011;3872;47.902;8.162;2023-05-02T08:47:26;8.60;;;4.90;;
7659;SDS011;3872;47.902;8.162;2023-05-02T08:49:54;8.60;;;5.30;;
7659;SDS011;3872;47.902;8.162;2023-05-02T08:52:22;9.47;;;4.97;;
7659;SDS011;3872;47.902;8.162;2023-05-02T08:54:49;10.53;;;5.30;;
7659;SDS011;3872;47.902;8.162;2023-05-02T08:57:17;10.20;;;5.50;;
7659;SDS011;3872;47.902;8.162;2023-05-02T08:59:46;7.63;;;4.80;;
7659;SDS011;3872;47.902;8.162;2023-05-02T09:02:17;10.63;;;4.73;;
7659;SDS011;3872;47.902;8.162;2023-05-02T09:04:53;8.90;;;5.30;;
7659;SDS011;3872;47.902;8.162;2023-05-02T09:07:20;6.80;;;4.10;;
7659;SDS011;3872;47.902;8.162;2023-05-02T09:09:47;7.60;;;5.10;;
7659;SDS011;3872;47.902;8.162;2023-05-02T09:12:14;7.90;;;4.70;;
7659;SDS011;3872;47.902;8.162;2023-05-02T09:14:41;12.10;;;5.60;;
7659;SDS011;3872;47.902;8.162;2023-05-02T09:17:10;8.27;;;5.47;;
7659;SDS011;3872;47.902;8.162;2023-05-02T09:19:36;6.70;;;4.33;;
7659;SDS011;3872;47.902;8.162;2023-05-02T09:22:03;8.70;;;5.30;;
7659;SDS011;3872;47.902;8.162;2023-05-02T09:24:29;7.40;;;4.23;;
7659;SDS011;3872;47.902;8.162;2023-05-02T09:26:57;12.67;;;5.17;;
7659;SDS011;3872;47.902;8.162;2023-05-02T09:29:26;7.40;;;4.67;;
7659;SDS011;3872;47.902;8.162;2023-05-02T09:31:54;8.83;;;4.97;;
7659;SDS011;3872;47.902;8.162;2023-05-02T09:34:22;8.97;;;4.47;;
7659;SDS011;3872;47.902;8.162;2023-05-02T09:36:49;16.23;;;5.20;;
7659;SDS011;3872;47.902;8.162;2023-05-02T09:39:19;9.10;;;5.20;;
7659;SDS011;3872;47.902;8.162;2023-05-02T09:41:47;9.47;;;5.10;;
7659;SDS011;3872;47.902;8.162;2023-05-02T09:44:15;8.63;;;4.80;;
7659;SDS011;3872;47.902;8.162;2023-05-02T09:46:43;7.47;;;4.83;;
7659;SDS011;3872;47.902;8.162;2023-05-02T09:49:11;7.97;;;4.70;;
7659;SDS011;3872;47.902;8.162;2023-05-02T09:51:40;8.70;;;4.90;;
7659;SDS011;3872;47.902;8.162;2023-05-02T09:54:08;7.30;;;4.30;;
7659;SDS011;3872;47.902;8.162;2023-05-02T09:59:20;7.90;;;4.90;;
7659;SDS011;3872;47.902;8.162;2023-05-02T10:01:53;7.97;;;4.47;;
7659;SDS011;3872;47.902;8.162;2023-05-02T10:04:20;7.63;;;5.00;;
7659;SDS011;3872;47.902;8.162;2023-05-02T10:06:48;8.37;;;5.20;;
7659;SDS011;3872;47.902;8.162;2023-05-02T10:09:16;7.97;;;4.40;;
7659;SDS011;3872;47.902;8.162;2023-05-02T10:11:45;8.57;;;5.13;;
7659;SDS011;3872;47.902;8.162;2023-05-02T10:14:12;7.30;;;4.53;;
7659;SDS011;3872;47.902;8.162;2023-05-02T10:16:44;8.40;;;4.87;;
7659;SDS011;3872;47.902;8.162;2023-05-02T10:19:16;8.20;;;4.50;;
7659;SDS011;3872;47.902;8.162;2023-05-02T10:21:49;8.63;;;4.90;;
7659;SDS011;3872;47.902;8.162;2023-05-02T10:24:17;7.97;;;4.77;;
7659;SDS011;3872;47.902;8.162;2023-05-02T10:26:44;8.57;;;4.70;;
7659;SDS011;3872;47.902;8.162;2023-05-02T10:29:10;6.90;;;4.23;;
7659;SDS011;3872;47.902;8.162;2023-05-02T10:31:37;10.53;;;5.40;;
7659;SDS011;3872;47.902;8.162;2023-05-02T10:34:05;7.77;;;4.90;;
7659;SDS011;3872;47.902;8.162;2023-05-02T10:36:34;7.30;;;4.70;;
7659;SDS011;3872;47.902;8.162;2023-05-02T10:39:02;8.90;;;4.53;;
7659;SDS011;3872;47.902;8.162;2023-05-02T10:41:30;8.83;;;5.33;;
7659;SDS011;3872;47.902;8.162;2023-05-02T10:43:58;8.20;;;5.50;;
7659;SDS011;3872;47.902;8.162;2023-05-02T10:46:30;8.30;;;4.70;;
7659;SDS011;3872;47.902;8.162;2023-05-02T10:49:02;8.60;;;5.33;;
7659;SDS011;3872;47.902;8.162;2023-05-02T10:51:30;9.47;;;4.97;;
7659;SDS011;3872;47.902;8.162;2023-05-02T10:57:05;8.67;;;5.57;;
7659;SDS011;3872;47.902;8.162;2023-05-02T10:59:33;10.13;;;6.20;;
7659;SDS011;3872;47.902;8.162;2023-05-02T11:02:01;8.70;;;5.00;;
7659;SDS011;3872;47.902;8.162;2023-05-02T11:07:28;6.97;;;4.13;;
7659;SDS011;3872;47.902;8.162;2023-05-02T11:12:54;9.27;;;4.63;;
7659;SDS011;3872;47.902;8.162;2023-05-02T11:18:19;8.70;;;5.47;;
7659;SDS011;3872;47.902;8.162;2023-05-02T11:20:46;12.10;;;5.03;;
7659;SDS011;3872;47.902;8.162;2023-05-02T11:23:19;8.73;;;4.80;;
7659;SDS011;3872;47.902;8.162;2023-05-02T11:25:52;7.73;;;4.77;;
7659;SDS011;3872;47.902;8.162;2023-05-02T11:28:39;8.63;;;4.77;;
7659;SDS011;3872;47.902;8.162;2023-05-02T11:34:38;9.67;;;4.70;;
7659;SDS011;3872;47.902;8.162;2023-05-02T11:37:10;9.63;;;5.67;;
7659;SDS011;3872;47.902;8.162;2023-05-02T11:39:37;7.50;;;5.20;;
7659;SDS011;3872;47.902;8.162;2023-05-02T11:42:05;7.27;;;4.50;;
7659;SDS011;3872;47.902;8.162;2023-05-02T11:44:31;11.73;;;4.93;;
7659;SDS011;3872;47.902;8.162;2023-05-02T11:46:59;8.10;;;4.73;;
7659;SDS011;3872;47.902;8.162;2023-05-02T11:49:27;7.20;;;4.90;;
7659;SDS011;3872;47.902;8.162;2023-05-02T11:51:53;9.73;;;5.03;;
7659;SDS011;3872;47.902;8.162;2023-05-02T11:54:20;8.50;;;4.47;;
7659;SDS011;3872;47.902;8.162;2023-05-02T11:56:47;10.30;;;5.03;;
7659;SDS011;3872;47.902;8.162;2023-05-02T11:59:15;8.60;;;5.07;;
7659;SDS011;3872;47.902;8.162;2023-05-02T12:01:46;9.10;;;4.47;;
7659;SDS011;3872;47.902;8.162;2023-05-02T12:04:13;7.60;;;4.40;;
7659;SDS011;3872;47.902;8.162;2023-05-02T12:06:52;9.63;;;4.53;;
7659;SDS011;3872;47.902;8.162;2023-05-02T12:09:19;10.87;;;4.97;;
7659;SDS011;3872;47.902;8.162;2023-05-02T12:11:50;8.53;;;4.40;;
7659;SDS011;3872;47.902;8.162;2023-05-02T12:14:18;6.80;;;3.83;;
7659;SDS011;3872;47.902;8.162;2023-05-02T12:16:52;12.20;;;4.53;;
7659;SDS011;3872;47.902;8.162;2023-05-02T12:19:18;9.87;;;5.23;;
7659;SDS011;3872;47.902;8.162;2023-05-02T12:21:45;7.60;;;4.50;;
7659;SDS011;3872;47.902;8.162;2023-05-02T12:24:13;9.27;;;5.17;;
7659;SDS011;3872;47.902;8.162;2023-05-02T12:26:39;12.53;;;6.23;;
7659;SDS011;3872;47.902;8.162;2023-05-02T12:29:06;10.67;;;5.80;;
7659;SDS011;3872;47.902;8.162;2023-05-02T12:31:34;9.20;;;4.83;;
7659;SDS011;3872;47.902;8.162;2023-05-02T12:34:01;8.67;;;5.20;;
7659;SDS011;3872;47.902;8.162;2023-05-02T12:36:27;7.33;;;4.70;;
7659;SDS011;3872;47.902;8.162;2023-05-02T12:38:55;7.70;;;4.10;;
7659;SDS011;3872;47.902;8.162;2023-05-02T12:41:30;7.30;;;4.50;;
7659;SDS011;3872;47.902;8.162;2023-05-02T12:43:57;6.40;;;3.73;;
7659;SDS011;3872;47.902;8.162;2023-05-02T12:46:25;6.97;;;3.73;;
7659;SDS011;3872;47.902;8.162;2023-05-02T12:49:01;5.90;;;3.50;;
7659;SDS011;3872;47.902;8.162;2023-05-02T12:51:29;7.10;;;4.13;;
7659;SDS011;3872;47.902;8.162;2023-05-02T12:53:56;7.70;;;4.43;;
7659;SDS011;3872;47.902;8.162;2023-05-02T12:56:23;7.90;;;4.00;;
7659;SDS011;3872;47.902;8.162;2023-05-02T12:58:51;7.10;;;4.47;;
7659;SDS011;3872;47.902;8.162;2023-05-02T13:01:18;8.07;;;4.80;;
7659;SDS011;3872;47.902;8.162;2023-05-02T13:03:44;10.77;;;4.60;;
7659;SDS011;3872;47.902;8.162;2023-05-02T13:06:13;7.80;;;4.53;;
7659;SDS011;3872;47.902;8.162;2023-05-02T13:08:39;8.30;;;4.63;;
7659;SDS011;3872;47.902;8.162;2023-05-02T13:11:06;9.40;;;4.40;;
7659;SDS011;3872;47.902;8.162;2023-05-02T13:13:33;9.30;;;4.43;;
7659;SDS011;3872;47.902;8.162;2023-05-02T13:15:59;6.93;;;4.13;;
7659;SDS011;3872;47.902;8.162;2023-05-02T13:18:26;6.37;;;3.80;;
7659;SDS011;3872;47.902;8.162;2023-05-02T13:20:53;7.40;;;4.30;;
7659;SDS011;3872;47.902;8.162;2023-05-02T13:23:20;7.33;;;3.60;;
7659;SDS011;3872;47.902;8.162;2023-05-02T13:25:47;7.17;;;4.67;;
7659;SDS011;3872;47.902;8.162;2023-05-02T13:28:14;8.23;;;4.73;;
7659;SDS011;3872;47.902;8.162;2023-05-02T13:30:40;7.53;;;4.07;;
7659;SDS011;3872;47.902;8.162;2023-05-02T13:33:07;9.40;;;4.73;;
7659;SDS011;3872;47.902;8.162;2023-05-02T13:35:33;10.20;;;4.63;;
7659;SDS011;3872;47.902;8.162;2023-05-02T13:38:00;7.33;;;4.23;;
7659;SDS011;3872;47.902;8.162;2023-05-02T13:40:27;5.70;;;3.20;;
7659;SDS011;3872;47.902;8.162;2023-05-02T13:42:54;6.10;;;3.40;;
7659;SDS011;3872;47.902;8.162;2023-05-02T13:45:21;5.77;;;3.00;;
7659;SDS011;3872;47.902;8.162;2023-05-02T13:47:47;5.10;;;2.70;;
7659;SDS011;3872;47.902;8.162;2023-05-02T13:50:14;5.47;;;2.50;;
7659;SDS011;3872;47.902;8.162;2023-05-02T13:52:40;5.10;;;2.60;;
7659;SDS011;3872;47.902;8.162;2023-05-02T13:55:07;4.90;;;2.70;;
7659;SDS011;3872;47.902;8.162;2023-05-02T13:57:35;5.70;;;3.17;;
7659;SDS011;3872;47.902;8.162;2023-05-02T14:00:02;6.87;;;4.03;;
7659;SDS011;3872;47.902;8.162;2023-05-02T14:02:30;8.57;;;4.63;;
7659;SDS011;3872;47.902;8.162;2023-05-02T14:04:56;7.87;;;4.87;;
7659;SDS011;3872;47.902;8.162;2023-05-02T14:07:23;7.27;;;3.90;;
7659;SDS011;3872;47.902;8.162;2023-05-02T14:09:49;7.17;;;4.70;;
7659;SDS011;3872;47.902;8.162;2023-05-02T14:12:16;9.27;;;4.77;;
7659;SDS011;3872;47.902;8.162;2023-05-02T14:14:44;8.70;;;5.07;;
7659;SDS011;3872;47.902;8.162;2023-05-02T14:17:10;8.23;;;5.20;;
7659;SDS011;3872;47.902;8.162;2023-05-02T14:19:37;10.33;;;5.43;;
7659;SDS011;3872;47.902;8.162;2023-05-02T14:22:03;10.90;;;6.00;;
7659;SDS011;3872;47.902;8.162;2023-05-02T14:24:31;8.30;;;5.67;;
7659;SDS011;3872;47.902;8.162;2023-05-02T14:26:57;9.20;;;5.83;;
7659;SDS011;3872;47.902;8.162;2023-05-02T14:29:25;9.67;;;6.13;;
7659;SDS011;3872;47.902;8.162;2023-05-02T14:31:54;10.03;;;5.73;;
7659;SDS011;3872;47.902;8.162;2023-05-02T14:34:20;9.30;;;5.90;;
7659;SDS011;3872;47.902;8.162;2023-05-02T14:36:50;10.50;;;5.87;;
7659;SDS011;3872;47.902;8.162;2023-05-02T14:39:17;9.77;;;5.77;;
7659;SDS011;3872;47.902;8.162;2023-05-02T14:41:43;10.47;;;6.17;;
7659;SDS011;3872;47.902;8.162;2023-05-02T14:44:10;8.67;;;4.97;;
7659;SDS011;3872;47.902;8.162;2023-05-02T14:46:36;10.17;;;5.47;;
7659;SDS011;3872;47.902;8.162;2023-05-02T14:49:05;8.73;;;5.40;;
7659;SDS011;3872;47.902;8.162;2023-05-02T14:51:31;8.30;;;5.30;;
7659;SDS011;3872;47.902;8.162;2023-05-02T14:53:58;7.83;;;4.93;;
7659;SDS011;3872;47.902;8.162;2023-05-02T14:56:24;7.90;;;4.60;;
7659;SDS011;3872;47.902;8.162;2023-05-02T14:58:51;9.50;;;5.07;;
7659;SDS011;3872;47.902;8.162;2023-05-02T15:01:18;6.70;;;4.20;;
7659;SDS011;3872;47.902;8.162;2023-05-02T15:03:46;6.50;;;4.27;;
7659;SDS011;3872;47.902;8.162;2023-05-02T15:06:15;10.07;;;4.30;;
7659;SDS011;3872;47.902;8.162;2023-05-02T15:08:41;8.30;;;4.50;;
7659;SDS011;3872;47.902;8.162;2023-05-02T15:11:09;9.27;;;4.80;;
7659;SDS011;3872;47.902;8.162;2023-05-02T15:13:35;7.37;;;3.93;;
7659;SDS011;3872;47.902;8.162;2023-05-02T15:16:02;7.30;;;4.00;;
7659;SDS011;3872;47.902;8.162;2023-05-02T15:18:29;7.33;;;4.60;;
7659;SDS011;3872;47.902;8.162;2023-05-02T15:20:56;8.37;;;4.17;;
7659;SDS011;3872;47.902;8.162;2023-05-02T15:23:24;7.63;;;4.33;;
7659;SDS011;3872;47.902;8.162;2023-05-02T15:25:50;8.10;;;4.83;;
7659;SDS011;3872;47.902;8.162;2023-05-02T15:28:17;8.27;;;3.90;;
7659;SDS011;3872;47.902;8.162;2023-05-02T15:30:43;10.80;;;4.53;;
7659;SDS011;3872;47.902;8.162;2023-05-02T15:33:10;11.70;;;4.00;;